This is the latest recevied weather packets stored in our database for station/object K5MGY. If no packets are shown the sender has not sent any weather packets the latest 1 day(s).
| Time | Temp. | Humidity | Pressure | Rain* | Wind** | Luminosity | Snow |
|---|---|---|---|---|---|---|---|
| 1778098953 | 16.67° C | 72% | 1038.4 hPa | 0 mm | - | 113 W/m² | - |
| 1778097740 | 16.11° C | 74% | 1038.7 hPa | 0 mm | - | 216 W/m² | - |
| 1778095618 | 15.56° C | 76% | 1038.8 hPa | 0 mm | - | 148 W/m² | - |
| 1778094405 | 15° C | 79% | 1039.2 hPa | 0 mm | - | 92 W/m² | - |
| 1778092586 | 14.44° C | 79% | 1039.3 hPa | 0 mm | - | 107 W/m² | - |
| 1778092282 | 14.44° C | 79% | 1039.4 hPa | 0 mm | - | 64 W/m² | - |
| 1778090768 | 14.44° C | 80% | 1038.2 hPa | 0 mm | - | 149 W/m² | - |
| 1778089857 | 13.89° C | 82% | 1037.4 hPa | 0 mm | - | 116 W/m² | - |
| 1778085010 | 13.33° C | 87% | 1038.4 hPa | 0 mm | - | 53 W/m² | - |
| 1778084101 | 13.89° C | 87% | 1038.2 hPa | 0 mm | - | 108 W/m² | - |
| 1778083798 | 13.89° C | 87% | 1038.3 hPa | 0 mm | - | 121 W/m² | - |
| 1778080869 | 12.22° C | 89% | 1038.7 hPa | 0 mm | - | 52 W/m² | - |
| 1778079657 | 12.78° C | 84% | 1039.4 hPa | 0 mm | - | 26 W/m² | - |
| 1778078748 | 12.78° C | 82% | 1039.9 hPa | 0 mm | - | 15 W/m² | - |
| 1778078143 | 12.78° C | 81% | 1039.6 hPa | 0 mm | - | 21 W/m² | - |
| 1778077237 | 12.78° C | 79% | 1038.5 hPa | 0 mm | - | 26 W/m² | - |
| 1778076934 | 13.33° C | 79% | 1038.7 hPa | 0 mm | - | 22 W/m² | - |
| 1778075723 | 13.33° C | 78% | 1038.5 hPa | 0 mm | - | 39 W/m² | - |
| 1778075116 | 13.33° C | 77% | 1038.5 hPa | 0 mm | - | 34 W/m² | - |
| 1778072994 | 13.89° C | 75% | 1037.5 hPa | 0 mm | - | 31 W/m² | - |
| 1778069970 | 13.89° C | 75% | 1036.7 hPa | 0 mm | - | 11 W/m² | - |
| 1778069666 | 13.89° C | 75% | 1036.6 hPa | 0 mm | - | 8 W/m² | - |
| 1778068456 | 13.89° C | 76% | 1036.5 hPa | 0 mm | - | 2 W/m² | - |
| 1778067851 | 14.44° C | 75% | 1036.4 hPa | 0 mm | - | 1 W/m² | - |
| 1778067550 | 14.44° C | 74% | 1036.4 hPa | 0 mm | - | 1 W/m² | - |
* Rain latest hour (hover to see other rain measurements)
** Current wind speed in m/s (hover to see current wind gust speed)